<?xml version="1.0" encoding="UTF-8" standalone="no" ?>
<gpx xmlns="http://www.topografix.com/GPX/1/1" xmlns:xsi="http://www.w3.org/2001/XMLSchema-instance" xsi:schemaLocation="http://www.topografix.com/GPX/1/1 http://www.topografix.com/GPX/1/1/gpx.xsd" version="1.1" creator="VisuGPX - https://www.visugpx.com">
  <metadata>
    <name>Traversée Saint-Lary - Barèges</name>
    <desc><![CDATA[Traverssée Sait-Lary Barèges par le CAF de Lourdes en ski de randonnée.
BRA à 4.]]></desc>
  </metadata>
  <trk>
    <name><![CDATA[S017-02-09 17:30:55]]></name>
    <trkseg>
      <trkpt lat="42.83233" lon="0.23659">
        <ele>2214.23</ele>
        <time>2017-02-09T08:51:59Z</time>
      </trkpt>
      <trkpt lat="42.8323" lon="0.23661">
        <ele>2214.94</ele>
        <time>2017-02-09T08:52:26Z</time>
      </trkpt>
      <trkpt lat="42.83231" lon="0.23661">
        <ele>2214.94</ele>
        <time>2017-02-09T08:52:46Z</time>
      </trkpt>
      <trkpt lat="42.83233" lon="0.2366">
        <ele>2214.96</ele>
        <time>2017-02-09T08:53:09Z</time>
      </trkpt>
      <trkpt lat="42.83233" lon="0.23661">
        <ele>2215.5</ele>
        <time>2017-02-09T08:53:30Z</time>
      </trkpt>
      <trkpt lat="42.83232" lon="0.23658">
        <ele>2214.61</ele>
        <time>2017-02-09T08:53:55Z</time>
      </trkpt>
      <trkpt lat="42.83239" lon="0.2366">
        <ele>2215.55</ele>
        <time>2017-02-09T08:54:06Z</time>
      </trkpt>
      <trkpt lat="42.83263" lon="0.23673">
        <ele>2213.84</ele>
        <time>2017-02-09T08:54:13Z</time>
      </trkpt>
      <trkpt lat="42.83278" lon="0.23626">
        <ele>2210.59</ele>
        <time>2017-02-09T08:54:19Z</time>
      </trkpt>
      <trkpt lat="42.83272" lon="0.23615">
        <ele>2209.02</ele>
        <time>2017-02-09T08:54:21Z</time>
      </trkpt>
      <trkpt lat="42.83265" lon="0.23604">
        <ele>2207.57</ele>
        <time>2017-02-09T08:54:23Z</time>
      </trkpt>
      <trkpt lat="42.83254" lon="0.23591">
        <ele>2205.75</ele>
        <time>2017-02-09T08:54:26Z</time>
      </trkpt>
      <trkpt lat="42.83243" lon="0.23559">
        <ele>2203.85</ele>
        <time>2017-02-09T08:54:32Z</time>
      </trkpt>
      <trkpt lat="42.83232" lon="0.23507">
        <ele>2200.55</ele>
        <time>2017-02-09T08:54:39Z</time>
      </trkpt>
      <trkpt lat="42.83229" lon="0.23495">
        <ele>2199.56</ele>
        <time>2017-02-09T08:54:41Z</time>
      </trkpt>
      <trkpt lat="42.83215" lon="0.23463">
        <ele>2197.45</ele>
        <time>2017-02-09T08:54:52Z</time>
      </trkpt>
      <trkpt lat="42.83213" lon="0.2346">
        <ele>2196.54</ele>
        <time>2017-02-09T08:55:01Z</time>
      </trkpt>
      <trkpt lat="42.83207" lon="0.23448">
        <ele>2195.69</ele>
        <time>2017-02-09T08:55:07Z</time>
      </trkpt>
      <trkpt lat="42.83197" lon="0.23439">
        <ele>2193.53</ele>
        <time>2017-02-09T08:55:18Z</time>
      </trkpt>
      <trkpt lat="42.83194" lon="0.23439">
        <ele>2193.34</ele>
        <time>2017-02-09T08:55:22Z</time>
      </trkpt>
      <trkpt lat="42.83178" lon="0.2344">
        <ele>2190.69</ele>
        <time>2017-02-09T08:55:30Z</time>
      </trkpt>
      <trkpt lat="42.83172" lon="0.23438">
        <ele>2189.25</ele>
        <time>2017-02-09T08:55:35Z</time>
      </trkpt>
      <trkpt lat="42.83149" lon="0.2341">
        <ele>2186.14</ele>
        <time>2017-02-09T08:55:47Z</time>
      </trkpt>
      <trkpt lat="42.8313" lon="0.23383">
        <ele>2183.53</ele>
        <time>2017-02-09T08:55:52Z</time>
      </trkpt>
      <trkpt lat="42.83113" lon="0.23343">
        <ele>2179.44</ele>
        <time>2017-02-09T08:55:58Z</time>
      </trkpt>
      <trkpt lat="42.83106" lon="0.23326">
        <ele>2177.85</ele>
        <time>2017-02-09T08:56:00Z</time>
      </trkpt>
      <trkpt lat="42.831" lon="0.23288">
        <ele>2174.26</ele>
        <time>2017-02-09T08:56:04Z</time>
      </trkpt>
      <trkpt lat="42.83091" lon="0.2324">
        <ele>2170.44</ele>
        <time>2017-02-09T08:56:09Z</time>
      </trkpt>
      <trkpt lat="42.83082" lon="0.23205">
        <ele>2167.75</ele>
        <time>2017-02-09T08:56:12Z</time>
      </trkpt>
      <trkpt lat="42.83074" lon="0.23171">
        <ele>2165.6</ele>
        <time>2017-02-09T08:56:15Z</time>
      </trkpt>
      <trkpt lat="42.8307" lon="0.2315">
        <ele>2164.11</ele>
        <time>2017-02-09T08:56:17Z</time>
      </trkpt>
      <trkpt lat="42.83064" lon="0.23128">
        <ele>2161.81</ele>
        <time>2017-02-09T08:56:19Z</time>
      </trkpt>
      <trkpt lat="42.83047" lon="0.23069">
        <ele>2156.09</ele>
        <time>2017-02-09T08:56:25Z</time>
      </trkpt>
      <trkpt lat="42.83045" lon="0.2306">
        <ele>2155.13</ele>
        <time>2017-02-09T08:56:26Z</time>
      </trkpt>
      <trkpt lat="42.83032" lon="0.23024">
        <ele>2151.37</ele>
        <time>2017-02-09T08:56:30Z</time>
      </trkpt>
      <trkpt lat="42.83017" lon="0.22988">
        <ele>2147.44</ele>
        <time>2017-02-09T08:56:34Z</time>
      </trkpt>
      <trkpt lat="42.83005" lon="0.22936">
        <ele>2143.44</ele>
        <time>2017-02-09T08:56:39Z</time>
      </trkpt>
      <trkpt lat="42.82994" lon="0.22906">
        <ele>2140.92</ele>
        <time>2017-02-09T08:56:42Z</time>
      </trkpt>
      <trkpt lat="42.82987" lon="0.22887">
        <ele>2139.29</ele>
        <time>2017-02-09T08:56:44Z</time>
      </trkpt>
      <trkpt lat="42.82982" lon="0.2287">
        <ele>2137.68</ele>
        <time>2017-02-09T08:56:46Z</time>
      </trkpt>
      <trkpt lat="42.82977" lon="0.22832">
        <ele>2134.22</ele>
        <time>2017-02-09T08:56:50Z</time>
      </trkpt>
      <trkpt lat="42.82988" lon="0.22791">
        <ele>2128.43</ele>
        <time>2017-02-09T08:56:56Z</time>
      </trkpt>
      <trkpt lat="42.82991" lon="0.22787">
        <ele>2124.67</ele>
        <time>2017-02-09T08:57:03Z</time>
      </trkpt>
      <trkpt lat="42.82989" lon="0.2279">
        <ele>2124.65</ele>
        <time>2017-02-09T08:57:21Z</time>
      </trkpt>
      <trkpt lat="42.82989" lon="0.22793">
        <ele>2124.88</ele>
        <time>2017-02-09T08:57:46Z</time>
      </trkpt>
      <trkpt lat="42.8299" lon="0.22792">
        <ele>2125.27</ele>
        <time>2017-02-09T08:58:13Z</time>
      </trkpt>
      <trkpt lat="42.82992" lon="0.22792">
        <ele>2124.82</ele>
        <time>2017-02-09T08:58:18Z</time>
      </trkpt>
      <trkpt lat="42.82996" lon="0.22787">
        <ele>2124.69</ele>
        <time>2017-02-09T08:58:45Z</time>
      </trkpt>
      <trkpt lat="42.82996" lon="0.22784">
        <ele>2125.2</ele>
        <time>2017-02-09T08:59:10Z</time>
      </trkpt>
      <trkpt lat="42.82995" lon="0.22785">
        <ele>2125</ele>
        <time>2017-02-09T08:59:30Z</time>
      </trkpt>
      <trkpt lat="42.82991" lon="0.22788">
        <ele>2124.99</ele>
        <time>2017-02-09T08:59:51Z</time>
      </trkpt>
      <trkpt lat="42.82993" lon="0.22786">
        <ele>2124.59</ele>
        <time>2017-02-09T09:00:16Z</time>
      </trkpt>
      <trkpt lat="42.82992" lon="0.22793">
        <ele>2124.88</ele>
        <time>2017-02-09T09:00:39Z</time>
      </trkpt>
      <trkpt lat="42.82995" lon="0.22793">
        <ele>2124.68</ele>
        <time>2017-02-09T09:00:57Z</time>
      </trkpt>
      <trkpt lat="42.82998" lon="0.2279">
        <ele>2124.39</ele>
        <time>2017-02-09T09:00:59Z</time>
      </trkpt>
      <trkpt lat="42.83005" lon="0.22781">
        <ele>2124.05</ele>
        <time>2017-02-09T09:01:02Z</time>
      </trkpt>
      <trkpt lat="42.83015" lon="0.22771">
        <ele>2123.74</ele>
        <time>2017-02-09T09:01:05Z</time>
      </trkpt>
      <trkpt lat="42.83028" lon="0.22758">
        <ele>2122.97</ele>
        <time>2017-02-09T09:01:08Z</time>
      </trkpt>
      <trkpt lat="42.8304" lon="0.22747">
        <ele>2121.95</ele>
        <time>2017-02-09T09:01:10Z</time>
      </trkpt>
      <trkpt lat="42.83076" lon="0.22735">
        <ele>2117.95</ele>
        <time>2017-02-09T09:01:15Z</time>
      </trkpt>
      <trkpt lat="42.83099" lon="0.22744">
        <ele>2115.21</ele>
        <time>2017-02-09T09:01:18Z</time>
      </trkpt>
      <trkpt lat="42.83142" lon="0.22751">
        <ele>2110.93</ele>
        <time>2017-02-09T09:01:23Z</time>
      </trkpt>
      <trkpt lat="42.83169" lon="0.22757">
        <ele>2107.45</ele>
        <time>2017-02-09T09:01:26Z</time>
      </trkpt>
      <trkpt lat="42.83178" lon="0.22759">
        <ele>2106.45</ele>
        <time>2017-02-09T09:01:27Z</time>
      </trkpt>
      <trkpt lat="42.83203" lon="0.22736">
        <ele>2101.81</ele>
        <time>2017-02-09T09:01:32Z</time>
      </trkpt>
      <trkpt lat="42.83215" lon="0.22714">
        <ele>2099.22</ele>
        <time>2017-02-09T09:01:41Z</time>
      </trkpt>
      <trkpt lat="42.83215" lon="0.22706">
        <ele>2098.36</ele>
        <time>2017-02-09T09:01:57Z</time>
      </trkpt>
      <trkpt lat="42.83215" lon="0.22706">
        <ele>2097.99</ele>
        <time>2017-02-09T09:02:02Z</time>
      </trkpt>
      <trkpt lat="42.83214" lon="0.22711">
        <ele>2098.18</ele>
        <time>2017-02-09T09:02:25Z</time>
      </trkpt>
      <trkpt lat="42.83219" lon="0.22713">
        <ele>2098.97</ele>
        <time>2017-02-09T09:02:37Z</time>
      </trkpt>
      <trkpt lat="42.8322" lon="0.22709">
        <ele>2099.52</ele>
        <time>2017-02-09T09:02:57Z</time>
      </trkpt>
      <trkpt lat="42.83222" lon="0.22712">
        <ele>2099.63</ele>
        <time>2017-02-09T09:03:20Z</time>
      </trkpt>
      <trkpt lat="42.83217" lon="0.22711">
        <ele>2099.9</ele>
        <time>2017-02-09T09:03:41Z</time>
      </trkpt>
      <trkpt lat="42.83214" lon="0.2271">
        <ele>2098.6</ele>
        <time>2017-02-09T09:04:00Z</time>
      </trkpt>
      <trkpt lat="42.83213" lon="0.22707">
        <ele>2098.23</ele>
        <time>2017-02-09T09:04:21Z</time>
      </trkpt>
      <trkpt lat="42.83212" lon="0.22709">
        <ele>2098.07</ele>
        <time>2017-02-09T09:04:45Z</time>
      </trkpt>
      <trkpt lat="42.83213" lon="0.22705">
        <ele>2097.53</ele>
        <time>2017-02-09T09:05:05Z</time>
      </trkpt>
      <trkpt lat="42.83214" lon="0.2271">
        <ele>2097.97</ele>
        <time>2017-02-09T09:05:25Z</time>
      </trkpt>
      <trkpt lat="42.83214" lon="0.22709">
        <ele>2098.18</ele>
        <time>2017-02-09T09:05:48Z</time>
      </trkpt>
      <trkpt lat="42.83214" lon="0.22708">
        <ele>2098.12</ele>
        <time>2017-02-09T09:05:52Z</time>
      </trkpt>
      <trkpt lat="42.83216" lon="0.22706">
        <ele>2098.14</ele>
        <time>2017-02-09T09:06:12Z</time>
      </trkpt>
      <trkpt lat="42.83216" lon="0.22705">
        <ele>2098.13</ele>
        <time>2017-02-09T09:06:37Z</time>
      </trkpt>
      <trkpt lat="42.83217" lon="0.22705">
        <ele>2098.19</ele>
        <time>2017-02-09T09:06:58Z</time>
      </trkpt>
      <trkpt lat="42.83215" lon="0.22709">
        <ele>2097.3</ele>
        <time>2017-02-09T09:07:23Z</time>
      </trkpt>
      <trkpt lat="42.83216" lon="0.22711">
        <ele>2098.38</ele>
        <time>2017-02-09T09:07:45Z</time>
      </trkpt>
      <trkpt lat="42.83223" lon="0.22716">
        <ele>2099.41</ele>
        <time>2017-02-09T09:08:01Z</time>
      </trkpt>
      <trkpt lat="42.83227" lon="0.22715">
        <ele>2101.07</ele>
        <time>2017-02-09T09:08:19Z</time>
      </trkpt>
      <trkpt lat="42.83229" lon="0.22717">
        <ele>2100.88</ele>
        <time>2017-02-09T09:08:42Z</time>
      </trkpt>
      <trkpt lat="42.83243" lon="0.22715">
        <ele>2101.98</ele>
        <time>2017-02-09T09:09:05Z</time>
      </trkpt>
      <trkpt lat="42.83253" lon="0.2271">
        <ele>2103.38</ele>
        <time>2017-02-09T09:09:21Z</time>
      </trkpt>
      <trkpt lat="42.83266" lon="0.22708">
        <ele>2105.63</ele>
        <time>2017-02-09T09:09:40Z</time>
      </trkpt>
      <trkpt lat="42.83275" lon="0.22705">
        <ele>2107.25</ele>
        <time>2017-02-09T09:09:52Z</time>
      </trkpt>
      <trkpt lat="42.83284" lon="0.22704">
        <ele>2108.74</ele>
        <time>2017-02-09T09:10:06Z</time>
      </trkpt>
      <trkpt lat="42.83294" lon="0.22703">
        <ele>2111.75</ele>
        <time>2017-02-09T09:10:22Z</time>
      </trkpt>
      <trkpt lat="42.83303" lon="0.22696">
        <ele>2113.5</ele>
        <time>2017-02-09T09:10:34Z</time>
      </trkpt>
      <trkpt lat="42.83311" lon="0.22692">
        <ele>2114.73</ele>
        <time>2017-02-09T09:10:45Z</time>
      </trkpt>
      <trkpt lat="42.83318" lon="0.22689">
        <ele>2116.27</ele>
        <time>2017-02-09T09:10:57Z</time>
      </trkpt>
      <trkpt lat="42.83327" lon="0.22688">
        <ele>2117.78</ele>
        <time>2017-02-09T09:11:10Z</time>
      </trkpt>
      <trkpt lat="42.83335" lon="0.22688">
        <ele>2119.64</ele>
        <time>2017-02-09T09:11:21Z</time>
      </trkpt>
      <trkpt lat="42.83342" lon="0.22684">
        <ele>2121.45</ele>
        <time>2017-02-09T09:11:33Z</time>
      </trkpt>
      <trkpt lat="42.83346" lon="0.22677">
        <ele>2122.76</ele>
        <time>2017-02-09T09:11:46Z</time>
      </trkpt>
      <trkpt lat="42.83353" lon="0.22666">
        <ele>2124.48</ele>
        <time>2017-02-09T09:12:01Z</time>
      </trkpt>
      <trkpt lat="42.83358" lon="0.22657">
        <ele>2126.75</ele>
        <time>2017-02-09T09:12:14Z</time>
      </trkpt>
      <trkpt lat="42.83363" lon="0.22649">
        <ele>2127.82</ele>
        <time>2017-02-09T09:12:24Z</time>
      </trkpt>
      <trkpt lat="42.83369" lon="0.22645">
        <ele>2128.96</ele>
        <time>2017-02-09T09:12:33Z</time>
      </trkpt>
      <trkpt lat="42.83378" lon="0.22644">
        <ele>2131.54</ele>
        <time>2017-02-09T09:12:46Z</time>
      </trkpt>
      <trkpt lat="42.83383" lon="0.22638">
        <ele>2132.87</ele>
        <time>2017-02-09T09:12:56Z</time>
      </trkpt>
      <trkpt lat="42.83394" lon="0.22629">
        <ele>2134.34</ele>
        <time>2017-02-09T09:13:13Z</time>
      </trkpt>
      <trkpt lat="42.83403" lon="0.2262">
        <ele>2135.79</ele>
        <time>2017-02-09T09:13:29Z</time>
      </trkpt>
      <trkpt lat="42.83414" lon="0.22612">
        <ele>2136.48</ele>
        <time>2017-02-09T09:13:43Z</time>
      </trkpt>
      <trkpt lat="42.8342" lon="0.22608">
        <ele>2137.73</ele>
        <time>2017-02-09T09:13:55Z</time>
      </trkpt>
      <trkpt lat="42.83426" lon="0.22597">
        <ele>2140.19</ele>
        <time>2017-02-09T09:14:12Z</time>
      </trkpt>
      <trkpt lat="42.83431" lon="0.22581">
        <ele>2142.61</ele>
        <time>2017-02-09T09:14:27Z</time>
      </trkpt>
      <trkpt lat="42.83438" lon="0.22563">
        <ele>2145.47</ele>
        <time>2017-02-09T09:14:44Z</time>
      </trkpt>
      <trkpt lat="42.83444" lon="0.22553">
        <ele>2147.58</ele>
        <time>2017-02-09T09:14:59Z</time>
      </trkpt>
      <trkpt lat="42.83448" lon="0.22534">
        <ele>2150.46</ele>
        <time>2017-02-09T09:15:22Z</time>
      </trkpt>
      <trkpt lat="42.8345" lon="0.22517">
        <ele>2152.79</ele>
        <time>2017-02-09T09:15:40Z</time>
      </trkpt>
      <trkpt lat="42.83452" lon="0.22504">
        <ele>2155.68</ele>
        <time>2017-02-09T09:15:58Z</time>
      </trkpt>
      <trkpt lat="42.83455" lon="0.22484">
        <ele>2158.12</ele>
        <time>2017-02-09T09:16:19Z</time>
      </trkpt>
      <trkpt lat="42.83458" lon="0.22468">
        <ele>2160.48</ele>
        <time>2017-02-09T09:16:38Z</time>
      </trkpt>
      <trkpt lat="42.83465" lon="0.22448">
        <ele>2163.37</ele>
        <time>2017-02-09T09:16:59Z</time>
      </trkpt>
      <trkpt lat="42.83471" lon="0.22433">
        <ele>2165.45</ele>
        <time>2017-02-09T09:17:13Z</time>
      </trkpt>
      <trkpt lat="42.83475" lon="0.22416">
        <ele>2168.54</ele>
        <time>2017-02-09T09:17:31Z</time>
      </trkpt>
      <trkpt lat="42.83481" lon="0.22401">
        <ele>2171.54</ele>
        <time>2017-02-09T09:17:51Z</time>
      </trkpt>
      <trkpt lat="42.83486" lon="0.2238">
        <ele>2173.53</ele>
        <time>2017-02-09T09:18:11Z</time>
      </trkpt>
      <trkpt lat="42.83495" lon="0.22353">
        <ele>2174.76</ele>
        <time>2017-02-09T09:18:34Z</time>
      </trkpt>
      <trkpt lat="42.83497" lon="0.22343">
        <ele>2175.52</ele>
        <time>2017-02-09T09:18:45Z</time>
      </trkpt>
      <trkpt lat="42.835" lon="0.22319">
        <ele>2178.12</ele>
        <time>2017-02-09T09:19:10Z</time>
      </trkpt>
      <trkpt lat="42.83498" lon="0.22301">
        <ele>2181.01</ele>
        <time>2017-02-09T09:19:32Z</time>
      </trkpt>
      <trkpt lat="42.83501" lon="0.22288">
        <ele>2182.58</ele>
        <time>2017-02-09T09:19:53Z</time>
      </trkpt>
      <trkpt lat="42.83506" lon="0.22268">
        <ele>2184.79</ele>
        <time>2017-02-09T09:20:13Z</time>
      </trkpt>
      <trkpt lat="42.83513" lon="0.22261">
        <ele>2186.9</ele>
        <time>2017-02-09T09:20:27Z</time>
      </trkpt>
      <trkpt lat="42.83522" lon="0.22253">
        <ele>2189.16</ele>
        <time>2017-02-09T09:20:43Z</time>
      </trkpt>
      <trkpt lat="42.83531" lon="0.22244">
        <ele>2190.75</ele>
        <time>2017-02-09T09:20:58Z</time>
      </trkpt>
      <trkpt lat="42.83537" lon="0.22239">
        <ele>2192.34</ele>
        <time>2017-02-09T09:21:10Z</time>
      </trkpt>
      <trkpt lat="42.83544" lon="0.22232">
        <ele>2194</ele>
        <time>2017-02-09T09:21:22Z</time>
      </trkpt>
      <trkpt lat="42.83551" lon="0.22227">
        <ele>2196.03</ele>
        <time>2017-02-09T09:21:35Z</time>
      </trkpt>
      <trkpt lat="42.8356" lon="0.22222">
        <ele>2198.52</ele>
        <time>2017-02-09T09:21:52Z</time>
      </trkpt>
      <trkpt lat="42.8356" lon="0.22212">
        <ele>2200.54</ele>
        <time>2017-02-09T09:22:07Z</time>
      </trkpt>
      <trkpt lat="42.83557" lon="0.222">
        <ele>2203.2</ele>
        <time>2017-02-09T09:22:25Z</time>
      </trkpt>
      <trkpt lat="42.83554" lon="0.22184">
        <ele>2206.32</ele>
        <time>2017-02-09T09:22:45Z</time>
      </trkpt>
      <trkpt lat="42.83554" lon="0.22159">
        <ele>2208.98</ele>
        <time>2017-02-09T09:23:05Z</time>
      </trkpt>
      <trkpt lat="42.83563" lon="0.22144">
        <ele>2211.58</ele>
        <time>2017-02-09T09:23:25Z</time>
      </trkpt>
      <trkpt lat="42.83568" lon="0.22131">
        <ele>2213.47</ele>
        <time>2017-02-09T09:23:38Z</time>
      </trkpt>
      <trkpt lat="42.83572" lon="0.22123">
        <ele>2215.38</ele>
        <time>2017-02-09T09:23:53Z</time>
      </trkpt>
      <trkpt lat="42.83572" lon="0.22124">
        <ele>2215.29</ele>
        <time>2017-02-09T09:24:17Z</time>
      </trkpt>
      <trkpt lat="42.83571" lon="0.22119">
        <ele>2215.23</ele>
        <time>2017-02-09T09:24:43Z</time>
      </trkpt>
      <trkpt lat="42.83571" lon="0.22119">
        <ele>2215.24</ele>
        <time>2017-02-09T09:25:09Z</time>
      </trkpt>
      <trkpt lat="42.8357" lon="0.22121">
        <ele>2215.43</ele>
        <time>2017-02-09T09:25:35Z</time>
      </trkpt>
      <trkpt lat="42.83569" lon="0.22121">
        <ele>2214.88</ele>
        <time>2017-02-09T09:25:56Z</time>
      </trkpt>
      <trkpt lat="42.83566" lon="0.22119">
        <ele>2215.12</ele>
        <time>2017-02-09T09:26:21Z</time>
      </trkpt>
      <trkpt lat="42.83566" lon="0.2212">
        <ele>2214.74</ele>
        <time>2017-02-09T09:26:41Z</time>
      </trkpt>
      <trkpt lat="42.83569" lon="0.22121">
        <ele>2214.78</ele>
        <time>2017-02-09T09:27:00Z</time>
      </trkpt>
      <trkpt lat="42.8357" lon="0.22121">
        <ele>2215.47</ele>
        <time>2017-02-09T09:27:17Z</time>
      </trkpt>
      <trkpt lat="42.83577" lon="0.22113">
        <ele>2215.57</ele>
        <time>2017-02-09T09:27:34Z</time>
      </trkpt>
      <trkpt lat="42.83583" lon="0.22107">
        <ele>2217.21</ele>
        <time>2017-02-09T09:27:46Z</time>
      </trkpt>
      <trkpt lat="42.8359" lon="0.22101">
        <ele>2219.01</ele>
        <time>2017-02-09T09:28:00Z</time>
      </trkpt>
      <trkpt lat="42.83598" lon="0.22089">
        <ele>2221.88</ele>
        <time>2017-02-09T09:28:16Z</time>
      </trkpt>
      <trkpt lat="42.83606" lon="0.22082">
        <ele>2223.71</ele>
        <time>2017-02-09T09:28:29Z</time>
      </trkpt>
      <trkpt lat="42.83614" lon="0.22076">
        <ele>2225.25</ele>
        <time>2017-02-09T09:28:40Z</time>
      </trkpt>
      <trkpt lat="42.83622" lon="0.22072">
        <ele>2227.65</ele>
        <time>2017-02-09T09:28:54Z</time>
      </trkpt>
      <trkpt lat="42.8363" lon="0.22069">
        <ele>2229.8</ele>
        <time>2017-02-09T09:29:08Z</time>
      </trkpt>
      <trkpt lat="42.83634" lon="0.22062">
        <ele>2231.84</ele>
        <time>2017-02-09T09:29:20Z</time>
      </trkpt>
      <trkpt lat="42.8363" lon="0.22047">
        <ele>2234.06</ele>
        <time>2017-02-09T09:29:35Z</time>
      </trkpt>
      <trkpt lat="42.83627" lon="0.22024">
        <ele>2237.07</ele>
        <time>2017-02-09T09:29:57Z</time>
      </trkpt>
      <trkpt lat="42.83633" lon="0.22021">
        <ele>2238.79</ele>
        <time>2017-02-09T09:30:08Z</time>
      </trkpt>
      <trkpt lat="42.83636" lon="0.22016">
        <ele>2241.26</ele>
        <time>2017-02-09T09:30:21Z</time>
      </trkpt>
      <trkpt lat="42.8364" lon="0.2201">
        <ele>2242.88</ele>
        <time>2017-02-09T09:30:32Z</time>
      </trkpt>
      <trkpt lat="42.83643" lon="0.22002">
        <ele>2245.22</ele>
        <time>2017-02-09T09:30:45Z</time>
      </trkpt>
      <trkpt lat="42.8365" lon="0.21988">
        <ele>2247.55</ele>
        <time>2017-02-09T09:31:02Z</time>
      </trkpt>
      <trkpt lat="42.83653" lon="0.21977">
        <ele>2248.51</ele>
        <time>2017-02-09T09:31:13Z</time>
      </trkpt>
      <trkpt lat="42.83656" lon="0.21963">
        <ele>2249.83</ele>
        <time>2017-02-09T09:31:27Z</time>
      </trkpt>
      <trkpt lat="42.83662" lon="0.2195">
        <ele>2250.73</ele>
        <time>2017-02-09T09:31:42Z</time>
      </trkpt>
      <trkpt lat="42.83666" lon="0.21937">
        <ele>2251.35</ele>
        <time>2017-02-09T09:31:52Z</time>
      </trkpt>
      <trkpt lat="42.83672" lon="0.21926">
        <ele>2252.72</ele>
        <time>2017-02-09T09:32:02Z</time>
      </trkpt>
      <trkpt lat="42.83678" lon="0.21916">
        <ele>2254.22</ele>
        <time>2017-02-09T09:32:13Z</time>
      </trkpt>
      <trkpt lat="42.83692" lon="0.21903">
        <ele>2255.36</ele>
        <time>2017-02-09T09:32:30Z</time>
      </trkpt>
      <trkpt lat="42.83694" lon="0.21903">
        <ele>2256.11</ele>
        <time>2017-02-09T09:32:47Z</time>
      </trkpt>
      <trkpt lat="42.83696" lon="0.21904">
        <ele>2256.28</ele>
        <time>2017-02-09T09:33:13Z</time>
      </trkpt>
      <trkpt lat="42.83694" lon="0.21905">
        <ele>2256.65</ele>
        <time>2017-02-09T09:33:37Z</time>
      </trkpt>
      <trkpt lat="42.83695" lon="0.21903">
        <ele>2256.57</ele>
        <time>2017-02-09T09:34:01Z</time>
      </trkpt>
      <trkpt lat="42.83695" lon="0.21903">
        <ele>2256.57</ele>
        <time>2017-02-09T09:34:20Z</time>
      </trkpt>
      <trkpt lat="42.83694" lon="0.21902">
        <ele>2256.63</ele>
        <time>2017-02-09T09:34:42Z</time>
      </trkpt>
      <trkpt lat="42.83696" lon="0.21901">
        <ele>2256.01</ele>
        <time>2017-02-09T09:35:01Z</time>
      </trkpt>
      <trkpt lat="42.83704" lon="0.21892">
        <ele>2256.78</ele>
        <time>2017-02-09T09:35:14Z</time>
      </trkpt>
      <trkpt lat="42.83705" lon="0.21892">
        <ele>2256.87</ele>
        <time>2017-02-09T09:35:15Z</time>
      </trkpt>
      <trkpt lat="42.83716" lon="0.21885">
        <ele>2258.78</ele>
        <time>2017-02-09T09:35:27Z</time>
      </trkpt>
      <trkpt lat="42.83725" lon="0.21877">
        <ele>2260.51</ele>
        <time>2017-02-09T09:35:41Z</time>
      </trkpt>
      <trkpt lat="42.83735" lon="0.21875">
        <ele>2261.52</ele>
        <time>2017-02-09T09:35:52Z</time>
      </trkpt>
      <trkpt lat="42.83747" lon="0.21869">
        <ele>2262.56</ele>
        <time>2017-02-09T09:36:08Z</time>
      </trkpt>
      <trkpt lat="42.83757" lon="0.2186">
        <ele>2263.08</ele>
        <time>2017-02-09T09:36:20Z</time>
      </trkpt>
      <trkpt lat="42.83767" lon="0.21847">
        <ele>2263.99</ele>
        <time>2017-02-09T09:36:39Z</time>
      </trkpt>
      <trkpt lat="42.83771" lon="0.21832">
        <ele>2265.16</ele>
        <time>2017-02-09T09:36:53Z</time>
      </trkpt>
      <trkpt lat="42.83775" lon="0.21818">
        <ele>2267.19</ele>
        <time>2017-02-09T09:37:08Z</time>
      </trkpt>
      <trkpt lat="42.83777" lon="0.21803">
        <ele>2269.94</ele>
        <time>2017-02-09T09:37:23Z</time>
      </trkpt>
      <trkpt lat="42.83777" lon="0.21789">
        <ele>2272.94</ele>
        <time>2017-02-09T09:37:42Z</time>
      </trkpt>
      <trkpt lat="42.83778" lon="0.2178">
        <ele>2274.73</ele>
        <time>2017-02-09T09:37:54Z</time>
      </trkpt>
      <trkpt lat="42.83782" lon="0.21776">
        <ele>2277.15</ele>
        <time>2017-02-09T09:38:14Z</time>
      </trkpt>
      <trkpt lat="42.83789" lon="0.2178">
        <ele>2279.35</ele>
        <time>2017-02-09T09:38:27Z</time>
      </trkpt>
      <trkpt lat="42.83789" lon="0.21775">
        <ele>2280.79</ele>
        <time>2017-02-09T09:38:46Z</time>
      </trkpt>
      <trkpt lat="42.83785" lon="0.21762">
        <ele>2282.57</ele>
        <time>2017-02-09T09:38:58Z</time>
      </trkpt>
      <trkpt lat="42.83781" lon="0.21751">
        <ele>2284.75</ele>
        <time>2017-02-09T09:39:10Z</time>
      </trkpt>
      <trkpt lat="42.83776" lon="0.21737">
        <ele>2287.88</ele>
        <time>2017-02-09T09:39:24Z</time>
      </trkpt>
      <trkpt lat="42.83775" lon="0.2173">
        <ele>2289.98</ele>
        <time>2017-02-09T09:39:41Z</time>
      </trkpt>
      <trkpt lat="42.83773" lon="0.2172">
        <ele>2291.32</ele>
        <time>2017-02-09T09:39:54Z</time>
      </trkpt>
      <trkpt lat="42.83772" lon="0.21704">
        <ele>2294.02</ele>
        <time>2017-02-09T09:40:12Z</time>
      </trkpt>
      <trkpt lat="42.83768" lon="0.21695">
        <ele>2296.32</ele>
        <time>2017-02-09T09:40:28Z</time>
      </trkpt>
      <trkpt lat="42.83767" lon="0.21687">
        <ele>2298.37</ele>
        <time>2017-02-09T09:40:43Z</time>
      </trkpt>
      <trkpt lat="42.83769" lon="0.21679">
        <ele>2300</ele>
        <time>2017-02-09T09:40:56Z</time>
      </trkpt>
      <trkpt lat="42.83772" lon="0.21668">
        <ele>2301.98</ele>
        <time>2017-02-09T09:41:10Z</time>
      </trkpt>
      <trkpt lat="42.83775" lon="0.21657">
        <ele>2303.84</ele>
        <time>2017-02-09T09:41:22Z</time>
      </trkpt>
      <trkpt lat="42.83778" lon="0.21645">
        <ele>2306.59</ele>
        <time>2017-02-09T09:41:42Z</time>
      </trkpt>
      <trkpt lat="42.83782" lon="0.21637">
        <ele>2308.74</ele>
        <time>2017-02-09T09:41:55Z</time>
      </trkpt>
      <trkpt lat="42.83787" lon="0.21628">
        <ele>2311.85</ele>
        <time>2017-02-09T09:42:12Z</time>
      </trkpt>
      <trkpt lat="42.83789" lon="0.21626">
        <ele>2314.28</ele>
        <time>2017-02-09T09:42:26Z</time>
      </trkpt>
      <trkpt lat="42.83792" lon="0.21632">
        <ele>2316.06</ele>
        <time>2017-02-09T09:42:39Z</time>
      </trkpt>
      <trkpt lat="42.838" lon="0.21645">
        <ele>2318.01</ele>
        <time>2017-02-09T09:42:56Z</time>
      </trkpt>
      <trkpt lat="42.83803" lon="0.21648">
        <ele>2320.23</ele>
        <time>2017-02-09T09:43:11Z</time>
      </trkpt>
      <trkpt lat="42.83805" lon="0.21634">
        <ele>2322.8</ele>
        <time>2017-02-09T09:43:34Z</time>
      </trkpt>
      <trkpt lat="42.83809" lon="0.21625">
        <ele>2325.41</ele>
        <time>2017-02-09T09:43:47Z</time>
      </trkpt>
      <trkpt lat="42.83809" lon="0.21615">
        <ele>2327.55</ele>
        <time>2017-02-09T09:44:02Z</time>
      </trkpt>
      <trkpt lat="42.83812" lon="0.21609">
        <ele>2329.85</ele>
        <time>2017-02-09T09:44:17Z</time>
      </trkpt>
      <trkpt lat="42.83812" lon="0.21609">
        <ele>2330.16</ele>
        <time>2017-02-09T09:44:22Z</time>
      </trkpt>
      <trkpt lat="42.83811" lon="0.21617">
        <ele>2331.53</ele>
        <time>2017-02-09T09:44:39Z</time>
      </trkpt>
      <trkpt lat="42.83815" lon="0.2163">
        <ele>2334.57</ele>
        <time>2017-02-09T09:44:58Z</time>
      </trkpt>
      <trkpt lat="42.83816" lon="0.21638">
        <ele>2336.91</ele>
        <time>2017-02-09T09:45:21Z</time>
      </trkpt>
      <trkpt lat="42.83817" lon="0.21638">
        <ele>2336.91</ele>
        <time>2017-02-09T09:45:22Z</time>
      </trkpt>
      <trkpt lat="42.83824" lon="0.21622">
        <ele>2339.46</ele>
        <time>2017-02-09T09:45:49Z</time>
      </trkpt>
      <trkpt lat="42.83831" lon="0.21612">
        <ele>2342.52</ele>
        <time>2017-02-09T09:46:07Z</time>
      </trkpt>
      <trkpt lat="42.83837" lon="0.21604">
        <ele>2344.64</ele>
        <time>2017-02-09T09:46:20Z</time>
      </trkpt>
      <trkpt lat="42.83838" lon="0.21615">
        <ele>2347.6</ele>
        <time>2017-02-09T09:46:42Z</time>
      </trkpt>
      <trkpt lat="42.83843" lon="0.21627">
        <ele>2349.82</ele>
        <time>2017-02-09T09:47:03Z</time>
      </trkpt>
      <trkpt lat="42.83847" lon="0.21637">
        <ele>2352.52</ele>
        <time>2017-02-09T09:47:23Z</time>
      </trkpt>
      <trkpt lat="42.83855" lon="0.21627">
        <ele>2354.62</ele>
        <time>2017-02-09T09:47:42Z</time>
      </trkpt>
      <trkpt lat="42.83858" lon="0.21618">
        <ele>2357.05</ele>
        <time>2017-02-09T09:47:58Z</time>
      </trkpt>
      <trkpt lat="42.83866" lon="0.21605">
        <ele>2359.97</ele>
        <time>2017-02-09T09:48:24Z</time>
      </trkpt>
      <trkpt lat="42.83872" lon="0.21607">
        <ele>2362.22</ele>
        <time>2017-02-09T09:48:42Z</time>
      </trkpt>
      <trkpt lat="42.83878" lon="0.21619">
        <ele>2365.29</ele>
        <time>2017-02-09T09:49:00Z</time>
      </trkpt>
      <trkpt lat="42.83885" lon="0.21617">
        <ele>2368.4</ele>
        <time>2017-02-09T09:49:23Z</time>
      </trkpt>
      <trkpt lat="42.83892" lon="0.21605">
        <ele>2371.22</ele>
        <time>2017-02-09T09:49:46Z</time>
      </trkpt>
      <trkpt lat="42.83896" lon="0.21593">
        <ele>2372.92</ele>
        <time>2017-02-09T09:50:09Z</time>
      </trkpt>
      <trkpt lat="42.83894" lon="0.21592">
        <ele>2372.95</ele>
        <time>2017-02-09T09:50:31Z</time>
      </trkpt>
      <trkpt lat="42.83894" lon="0.21587">
        <ele>2373.04</ele>
        <time>2017-02-09T09:51:00Z</time>
      </trkpt>
      <trkpt lat="42.83894" lon="0.21587">
        <ele>2373.08</ele>
        <time>2017-02-09T09:51:03Z</time>
      </trkpt>
      <trkpt lat="42.83893" lon="0.21585">
        <ele>2373.33</ele>
        <time>2017-02-09T09:51:31Z</time>
      </trkpt>
      <trkpt lat="42.83893" lon="0.21583">
        <ele>2373.15</ele>
        <time>2017-02-09T09:52:14Z</time>
      </trkpt>
      <trkpt lat="42.83893" lon="0.21581">
        <ele>2373.7</ele>
        <time>2017-02-09T09:52:54Z</time>
      </trkpt>
      <trkpt lat="42.83893" lon="0.2158">
        <ele>2373.29</ele>
        <time>2017-02-09T09:53:38Z</time>
      </trkpt>
      <trkpt lat="42.83894" lon="0.21582">
        <ele>2373.36</ele>
        <time>2017-02-09T09:54:17Z</time>
      </trkpt>
      <trkpt lat="42.83896" lon="0.21575">
        <ele>2373.3</ele>
        <time>2017-02-09T09:54:40Z</time>
      </trkpt>
      <trkpt lat="42.83904" lon="0.21558">
        <ele>2375.75</ele>
        <time>2017-02-09T09:55:04Z</time>
      </trkpt>
      <trkpt lat="42.83912" lon="0.21543">
        <ele>2378.64</ele>
        <time>2017-02-09T09:55:24Z</time>
      </trkpt>
      <trkpt lat="42.83921" lon="0.21526">
        <ele>2380.99</ele>
        <time>2017-02-09T09:55:47Z</time>
      </trkpt>
      <trkpt lat="42.83928" lon="0.21511">
        <ele>2383.46</ele>
        <time>2017-02-09T09:56:07Z</time>
      </trkpt>
      <trkpt lat="42.83932" lon="0.21497">
        <ele>2385.01</ele>
        <time>2017-02-09T09:56:24Z</time>
      </trkpt>
      <trkpt lat="42.83937" lon="0.21483">
        <ele>2386.27</ele>
        <time>2017-02-09T09:56:38Z</time>
      </trkpt>
      <trkpt lat="42.8394" lon="0.21465">
        <ele>2388.68</ele>
        <time>2017-02-09T09:56:54Z</time>
      </trkpt>
      <trkpt lat="42.83936" lon="0.21446">
        <ele>2391.21</ele>
        <time>2017-02-09T09:57:15Z</time>
      </trkpt>
      <trkpt lat="42.83931" lon="0.21434">
        <ele>2393.65</ele>
        <time>2017-02-09T09:57:32Z</time>
      </trkpt>
      <trkpt lat="42.83925" lon="0.21422">
        <ele>2394.78</ele>
        <time>2017-02-09T09:57:48Z</time>
      </trkpt>
      <trkpt lat="42.83919" lon="0.2141">
        <ele>2396.99</ele>
        <time>2017-02-09T09:58:07Z</time>
      </trkpt>
      <trkpt lat="42.83914" lon="0.21391">
        <ele>2398.39</ele>
        <time>2017-02-09T09:58:28Z</time>
      </trkpt>
      <trkpt lat="42.83914" lon="0.21372">
        <ele>2399.33</ele>
        <time>2017-02-09T09:58:46Z</time>
      </trkpt>
      <trkpt lat="42.83917" lon="0.21353">
        <ele>2398.41</ele>
        <time>2017-02-09T09:59:03Z</time>
      </trkpt>
      <trkpt lat="42.83918" lon="0.21349">
        <ele>2398.62</ele>
        <time>2017-02-09T09:59:23Z</time>
      </trkpt>
      <trkpt lat="42.83918" lon="0.21348">
        <ele>2398.13</ele>
        <time>2017-02-09T09:59:47Z</time>
      </trkpt>
      <trkpt lat="42.83917" lon="0.21349">
        <ele>2398.46</ele>
        <time>2017-02-09T10:00:14Z</time>
      </trkpt>
      <trkpt lat="42.83917" lon="0.21349">
        <ele>2398.41</ele>
        <time>2017-02-09T10:00:38Z</time>
      </trkpt>
      <trkpt lat="42.83918" lon="0.21348">
        <ele>2398.48</ele>
        <time>2017-02-09T10:01:00Z</time>
      </trkpt>
      <trkpt lat="42.83917" lon="0.2135">
        <ele>2398.71</ele>
        <time>2017-02-09T10:01:26Z</time>
      </trkpt>
      <trkpt lat="42.83918" lon="0.21349">
        <ele>2398.79</ele>
        <time>2017-02-09T10:01:52Z</time>
      </trkpt>
      <trkpt lat="42.83918" lon="0.21349">
        <ele>2398.73</ele>
        <time>2017-02-09T10:02:08Z</time>
      </trkpt>
      <trkpt lat="42.83917" lon="0.21349">
        <ele>2399.36</ele>
        <time>2017-02-09T10:05:42Z</time>
      </trkpt>
      <trkpt lat="42.83917" lon="0.21349">
        <ele>2399.15</ele>
        <time>2017-02-09T10:05:46Z</time>
      </trkpt>
      <trkpt lat="42.83917" lon="0.21349">
        <ele>2398.85</ele>
        <time>2017-02-09T10:07:23Z</time>
      </trkpt>
      <trkpt lat="42.83916" lon="0.2135">
        <ele>2398.76</ele>
        <time>2017-02-09T10:07:47Z</time>
      </trkpt>
      <trkpt lat="42.83918" lon="0.21351">
        <ele>2398.83</ele>
        <time>2017-02-09T10:07:54Z</time>
      </trkpt>
      <trkpt lat="42.83918" lon="0.21351">
        <ele>2399.03</ele>
        <time>2017-02-09T10:08:09Z</time>
      </trkpt>
      <trkpt lat="42.83918" lon="0.21351">
        <ele>2398.88</ele>
        <time>2017-02-09T10:08:11Z</time>
      </trkpt>
      <trkpt lat="42.83899" lon="0.21371">
        <ele>2395.57</ele>
        <time>2017-02-09T10:15:02Z</time>
      </trkpt>
      <trkpt lat="42.839" lon="0.21373">
        <ele>2395.67</ele>
        <time>2017-02-09T10:15:04Z</time>
      </trkpt>
      <trkpt lat="42.839" lon="0.21378">
        <ele>2395.49</ele>
        <time>2017-02-09T10:15:08Z</time>
      </trkpt>
      <trkpt lat="42.8385" lon="0.21335">
        <ele>2372.86</ele>
        <time>2017-02-09T10:15:40Z</time>
      </trkpt>
      <trkpt lat="42.83766" lon="0.21331">
        <ele>2351.36</ele>
        <time>2017-02-09T10:16:10Z</time>
      </trkpt>
      <trkpt lat="42.83673" lon="0.21303">
        <ele>2332.64</ele>
        <time>2017-02-09T10:16:24Z</time>
      </trkpt>
      <trkpt lat="42.83611" lon="0.21251">
        <ele>2306.53</ele>
        <time>2017-02-09T10:18:07Z</time>
      </trkpt>
      <trkpt lat="42.83534" lon="0.21186">
        <ele>2273.31</ele>
        <time>2017-02-09T10:18:31Z</time>
      </trkpt>
      <trkpt lat="42.83568" lon="0.21079">
        <ele>2248.75</ele>
        <time>2017-02-09T10:20:32Z</time>
      </trkpt>
      <trkpt lat="42.8366" lon="0.21046">
        <ele>2218.48</ele>
        <time>2017-02-09T10:22:24Z</time>
      </trkpt>
      <trkpt lat="42.83704" lon="0.20987">
        <ele>2191.14</ele>
        <time>2017-02-09T10:23:07Z</time>
      </trkpt>
      <trkpt lat="42.83707" lon="0.20892">
        <ele>2135.55</ele>
        <time>2017-02-09T10:23:55Z</time>
      </trkpt>
      <trkpt lat="42.83715" lon="0.20803">
        <ele>2116.09</ele>
        <time>2017-02-09T10:24:40Z</time>
      </trkpt>
      <trkpt lat="42.83708" lon="0.20745">
        <ele>2087.94</ele>
        <time>2017-02-09T10:29:32Z</time>
      </trkpt>
      <trkpt lat="42.83771" lon="0.20794">
        <ele>2109.15</ele>
        <time>2017-02-09T10:37:51Z</time>
      </trkpt>
      <trkpt lat="42.8384" lon="0.2083">
        <ele>2128.3</ele>
        <time>2017-02-09T10:40:46Z</time>
      </trkpt>
      <trkpt lat="42.83927" lon="0.2081">
        <ele>2134.15</ele>
        <time>2017-02-09T10:45:29Z</time>
      </trkpt>
      <trkpt lat="42.8402" lon="0.20848">
        <ele>2135.32</ele>
        <time>2017-02-09T10:47:01Z</time>
      </trkpt>
      <trkpt lat="42.8411" lon="0.20883">
        <ele>2138.31</ele>
        <time>2017-02-09T10:48:36Z</time>
      </trkpt>
      <trkpt lat="42.842" lon="0.20929">
        <ele>2140.37</ele>
        <time>2017-02-09T10:50:21Z</time>
      </trkpt>
      <trkpt lat="42.8427" lon="0.20987">
        <ele>2154.83</ele>
        <time>2017-02-09T10:52:51Z</time>
      </trkpt>
      <trkpt lat="42.84353" lon="0.21051">
        <ele>2165.89</ele>
        <time>2017-02-09T10:54:48Z</time>
      </trkpt>
      <trkpt lat="42.84422" lon="0.21137">
        <ele>2175.79</ele>
        <time>2017-02-09T10:56:41Z</time>
      </trkpt>
      <trkpt lat="42.84515" lon="0.21171">
        <ele>2184.78</ele>
        <time>2017-02-09T10:58:50Z</time>
      </trkpt>
      <trkpt lat="42.84608" lon="0.2119">
        <ele>2185.77</ele>
        <time>2017-02-09T11:01:14Z</time>
      </trkpt>
      <trkpt lat="42.84669" lon="0.21168">
        <ele>2184.96</ele>
        <time>2017-02-09T11:10:22Z</time>
      </trkpt>
      <trkpt lat="42.84739" lon="0.21278">
        <ele>2196.69</ele>
        <time>2017-02-09T11:12:20Z</time>
      </trkpt>
      <trkpt lat="42.84833" lon="0.21259">
        <ele>2197.48</ele>
        <time>2017-02-09T11:13:59Z</time>
      </trkpt>
      <trkpt lat="42.84904" lon="0.21165">
        <ele>2204.97</ele>
        <time>2017-02-09T11:15:48Z</time>
      </trkpt>
      <trkpt lat="42.84937" lon="0.21107">
        <ele>2212.55</ele>
        <time>2017-02-09T11:20:14Z</time>
      </trkpt>
      <trkpt lat="42.85018" lon="0.21088">
        <ele>2212.37</ele>
        <time>2017-02-09T11:21:57Z</time>
      </trkpt>
      <trkpt lat="42.85101" lon="0.21154">
        <ele>2212.05</ele>
        <time>2017-02-09T11:23:25Z</time>
      </trkpt>
      <trkpt lat="42.85191" lon="0.21122">
        <ele>2220.97</ele>
        <time>2017-02-09T11:25:47Z</time>
      </trkpt>
      <trkpt lat="42.85251" lon="0.21071">
        <ele>2228.22</ele>
        <time>2017-02-09T11:27:30Z</time>
      </trkpt>
      <trkpt lat="42.85283" lon="0.21096">
        <ele>2243.34</ele>
        <time>2017-02-09T11:29:59Z</time>
      </trkpt>
      <trkpt lat="42.85329" lon="0.2099">
        <ele>2248.83</ele>
        <time>2017-02-09T11:31:48Z</time>
      </trkpt>
      <trkpt lat="42.85328" lon="0.20981">
        <ele>2247.78</ele>
        <time>2017-02-09T11:46:45Z</time>
      </trkpt>
      <trkpt lat="42.85329" lon="0.20978">
        <ele>2247.92</ele>
        <time>2017-02-09T11:50:13Z</time>
      </trkpt>
      <trkpt lat="42.85327" lon="0.20974">
        <ele>2248.04</ele>
        <time>2017-02-09T11:51:03Z</time>
      </trkpt>
      <trkpt lat="42.85403" lon="0.20972">
        <ele>2253.41</ele>
        <time>2017-02-09T11:56:58Z</time>
      </trkpt>
      <trkpt lat="42.85494" lon="0.20959">
        <ele>2259.72</ele>
        <time>2017-02-09T11:58:40Z</time>
      </trkpt>
      <trkpt lat="42.85565" lon="0.20896">
        <ele>2269.27</ele>
        <time>2017-02-09T12:01:08Z</time>
      </trkpt>
      <trkpt lat="42.85542" lon="0.20801">
        <ele>2283.99</ele>
        <time>2017-02-09T12:03:06Z</time>
      </trkpt>
      <trkpt lat="42.85554" lon="0.20666">
        <ele>2291.31</ele>
        <time>2017-02-09T12:05:17Z</time>
      </trkpt>
      <trkpt lat="42.85554" lon="0.20532">
        <ele>2303.4</ele>
        <time>2017-02-09T12:07:37Z</time>
      </trkpt>
      <trkpt lat="42.85608" lon="0.20469">
        <ele>2324.17</ele>
        <time>2017-02-09T12:10:46Z</time>
      </trkpt>
      <trkpt lat="42.85633" lon="0.20419">
        <ele>2338.93</ele>
        <time>2017-02-09T12:19:53Z</time>
      </trkpt>
      <trkpt lat="42.85674" lon="0.20413">
        <ele>2332.15</ele>
        <time>2017-02-09T12:28:21Z</time>
      </trkpt>
      <trkpt lat="42.85669" lon="0.20318">
        <ele>2310.4</ele>
        <time>2017-02-09T12:29:37Z</time>
      </trkpt>
      <trkpt lat="42.85643" lon="0.20214">
        <ele>2274.41</ele>
        <time>2017-02-09T12:29:58Z</time>
      </trkpt>
      <trkpt lat="42.85657" lon="0.20119">
        <ele>2245.67</ele>
        <time>2017-02-09T12:32:57Z</time>
      </trkpt>
      <trkpt lat="42.85678" lon="0.19994">
        <ele>2226.93</ele>
        <time>2017-02-09T12:33:13Z</time>
      </trkpt>
      <trkpt lat="42.85645" lon="0.199">
        <ele>2205.09</ele>
        <time>2017-02-09T12:34:22Z</time>
      </trkpt>
      <trkpt lat="42.85654" lon="0.19803">
        <ele>2163.23</ele>
        <time>2017-02-09T12:34:53Z</time>
      </trkpt>
      <trkpt lat="42.85674" lon="0.19699">
        <ele>2124.66</ele>
        <time>2017-02-09T12:36:36Z</time>
      </trkpt>
      <trkpt lat="42.85707" lon="0.19574">
        <ele>2101.09</ele>
        <time>2017-02-09T12:37:32Z</time>
      </trkpt>
      <trkpt lat="42.85715" lon="0.19532">
        <ele>2098.53</ele>
        <time>2017-02-09T12:38:05Z</time>
      </trkpt>
      <trkpt lat="42.85714" lon="0.19532">
        <ele>2098.5</ele>
        <time>2017-02-09T12:38:06Z</time>
      </trkpt>
      <trkpt lat="42.85713" lon="0.1953">
        <ele>2098.47</ele>
        <time>2017-02-09T12:38:09Z</time>
      </trkpt>
      <trkpt lat="42.85725" lon="0.19471">
        <ele>2085.04</ele>
        <time>2017-02-09T12:38:48Z</time>
      </trkpt>
      <trkpt lat="42.85724" lon="0.19465">
        <ele>2084.11</ele>
        <time>2017-02-09T12:38:51Z</time>
      </trkpt>
      <trkpt lat="42.85724" lon="0.1946">
        <ele>2083.33</ele>
        <time>2017-02-09T12:38:53Z</time>
      </trkpt>
      <trkpt lat="42.8572" lon="0.19454">
        <ele>2081.35</ele>
        <time>2017-02-09T12:39:00Z</time>
      </trkpt>
      <trkpt lat="42.85719" lon="0.19453">
        <ele>2081.35</ele>
        <time>2017-02-09T12:39:01Z</time>
      </trkpt>
      <trkpt lat="42.85692" lon="0.19462">
        <ele>2075.76</ele>
        <time>2017-02-09T12:39:45Z</time>
      </trkpt>
      <trkpt lat="42.85645" lon="0.19343">
        <ele>2024.36</ele>
        <time>2017-02-09T12:43:32Z</time>
      </trkpt>
      <trkpt lat="42.85659" lon="0.19256">
        <ele>2016.6</ele>
        <time>2017-02-09T12:46:03Z</time>
      </trkpt>
      <trkpt lat="42.85649" lon="0.19224">
        <ele>2006.09</ele>
        <time>2017-02-09T12:50:47Z</time>
      </trkpt>
      <trkpt lat="42.85696" lon="0.19196">
        <ele>2010.33</ele>
        <time>2017-02-09T12:56:35Z</time>
      </trkpt>
      <trkpt lat="42.85792" lon="0.19127">
        <ele>2015.42</ele>
        <time>2017-02-09T12:59:16Z</time>
      </trkpt>
      <trkpt lat="42.85835" lon="0.19025">
        <ele>2021.98</ele>
        <time>2017-02-09T13:02:58Z</time>
      </trkpt>
      <trkpt lat="42.85904" lon="0.18945">
        <ele>2044.01</ele>
        <time>2017-02-09T13:05:45Z</time>
      </trkpt>
      <trkpt lat="42.85949" lon="0.1886">
        <ele>2068.68</ele>
        <time>2017-02-09T13:08:58Z</time>
      </trkpt>
      <trkpt lat="42.86019" lon="0.18779">
        <ele>2098.33</ele>
        <time>2017-02-09T13:12:07Z</time>
      </trkpt>
      <trkpt lat="42.86096" lon="0.18713">
        <ele>2115.74</ele>
        <time>2017-02-09T13:14:26Z</time>
      </trkpt>
      <trkpt lat="42.86108" lon="0.18667">
        <ele>2120.59</ele>
        <time>2017-02-09T13:26:06Z</time>
      </trkpt>
      <trkpt lat="42.86113" lon="0.18579">
        <ele>2117.77</ele>
        <time>2017-02-09T13:31:26Z</time>
      </trkpt>
      <trkpt lat="42.86134" lon="0.18449">
        <ele>2127.33</ele>
        <time>2017-02-09T13:33:30Z</time>
      </trkpt>
      <trkpt lat="42.86174" lon="0.18324">
        <ele>2140.44</ele>
        <time>2017-02-09T13:35:52Z</time>
      </trkpt>
      <trkpt lat="42.86213" lon="0.18239">
        <ele>2160.07</ele>
        <time>2017-02-09T13:38:36Z</time>
      </trkpt>
      <trkpt lat="42.86241" lon="0.18164">
        <ele>2181.9</ele>
        <time>2017-02-09T13:41:58Z</time>
      </trkpt>
      <trkpt lat="42.86253" lon="0.18053">
        <ele>2206.55</ele>
        <time>2017-02-09T13:45:35Z</time>
      </trkpt>
      <trkpt lat="42.86262" lon="0.17967">
        <ele>2229.96</ele>
        <time>2017-02-09T13:48:47Z</time>
      </trkpt>
      <trkpt lat="42.8628" lon="0.17867">
        <ele>2236.17</ele>
        <time>2017-02-09T14:01:08Z</time>
      </trkpt>
      <trkpt lat="42.86338" lon="0.17761">
        <ele>2237.93</ele>
        <time>2017-02-09T14:03:03Z</time>
      </trkpt>
      <trkpt lat="42.86346" lon="0.17638">
        <ele>2244.21</ele>
        <time>2017-02-09T14:05:02Z</time>
      </trkpt>
      <trkpt lat="42.86347" lon="0.17514">
        <ele>2246.61</ele>
        <time>2017-02-09T14:07:31Z</time>
      </trkpt>
      <trkpt lat="42.86357" lon="0.17389">
        <ele>2253.79</ele>
        <time>2017-02-09T14:09:59Z</time>
      </trkpt>
      <trkpt lat="42.86401" lon="0.17282">
        <ele>2264.12</ele>
        <time>2017-02-09T14:13:07Z</time>
      </trkpt>
      <trkpt lat="42.86457" lon="0.17179">
        <ele>2272.9</ele>
        <time>2017-02-09T14:15:58Z</time>
      </trkpt>
      <trkpt lat="42.86484" lon="0.17096">
        <ele>2288.77</ele>
        <time>2017-02-09T14:20:55Z</time>
      </trkpt>
      <trkpt lat="42.86532" lon="0.17031">
        <ele>2309.36</ele>
        <time>2017-02-09T14:23:46Z</time>
      </trkpt>
      <trkpt lat="42.86571" lon="0.16959">
        <ele>2326.82</ele>
        <time>2017-02-09T14:26:44Z</time>
      </trkpt>
      <trkpt lat="42.86623" lon="0.16941">
        <ele>2345.42</ele>
        <time>2017-02-09T14:30:11Z</time>
      </trkpt>
      <trkpt lat="42.86646" lon="0.16832">
        <ele>2365.84</ele>
        <time>2017-02-09T14:32:39Z</time>
      </trkpt>
      <trkpt lat="42.86709" lon="0.16781">
        <ele>2381.52</ele>
        <time>2017-02-09T14:35:04Z</time>
      </trkpt>
      <trkpt lat="42.86742" lon="0.16727">
        <ele>2402.26</ele>
        <time>2017-02-09T14:37:49Z</time>
      </trkpt>
      <trkpt lat="42.86785" lon="0.16682">
        <ele>2419.14</ele>
        <time>2017-02-09T14:51:44Z</time>
      </trkpt>
      <trkpt lat="42.86814" lon="0.16579">
        <ele>2441.35</ele>
        <time>2017-02-09T14:54:55Z</time>
      </trkpt>
      <trkpt lat="42.86845" lon="0.16525">
        <ele>2462.65</ele>
        <time>2017-02-09T14:57:44Z</time>
      </trkpt>
      <trkpt lat="42.86873" lon="0.16483">
        <ele>2485.21</ele>
        <time>2017-02-09T15:01:15Z</time>
      </trkpt>
      <trkpt lat="42.86894" lon="0.16424">
        <ele>2481.15</ele>
        <time>2017-02-09T15:20:18Z</time>
      </trkpt>
      <trkpt lat="42.86884" lon="0.16319">
        <ele>2463.45</ele>
        <time>2017-02-09T15:21:48Z</time>
      </trkpt>
      <trkpt lat="42.86869" lon="0.16195">
        <ele>2445.35</ele>
        <time>2017-02-09T15:23:06Z</time>
      </trkpt>
      <trkpt lat="42.86893" lon="0.16075">
        <ele>2427.2</ele>
        <time>2017-02-09T15:23:26Z</time>
      </trkpt>
      <trkpt lat="42.86928" lon="0.15962">
        <ele>2404.37</ele>
        <time>2017-02-09T15:23:45Z</time>
      </trkpt>
      <trkpt lat="42.86912" lon="0.15845">
        <ele>2378.39</ele>
        <time>2017-02-09T15:25:07Z</time>
      </trkpt>
      <trkpt lat="42.86946" lon="0.15727">
        <ele>2347.93</ele>
        <time>2017-02-09T15:25:24Z</time>
      </trkpt>
      <trkpt lat="42.87013" lon="0.1565">
        <ele>2324.79</ele>
        <time>2017-02-09T15:26:56Z</time>
      </trkpt>
      <trkpt lat="42.87073" lon="0.15549">
        <ele>2294.12</ele>
        <time>2017-02-09T15:27:14Z</time>
      </trkpt>
      <trkpt lat="42.87127" lon="0.15448">
        <ele>2263.29</ele>
        <time>2017-02-09T15:27:29Z</time>
      </trkpt>
      <trkpt lat="42.87177" lon="0.1535">
        <ele>2236.52</ele>
        <time>2017-02-09T15:30:24Z</time>
      </trkpt>
      <trkpt lat="42.87246" lon="0.15265">
        <ele>2209.89</ele>
        <time>2017-02-09T15:30:40Z</time>
      </trkpt>
      <trkpt lat="42.8729" lon="0.15153">
        <ele>2186.36</ele>
        <time>2017-02-09T15:32:05Z</time>
      </trkpt>
      <trkpt lat="42.87354" lon="0.1505">
        <ele>2167.31</ele>
        <time>2017-02-09T15:32:15Z</time>
      </trkpt>
      <trkpt lat="42.87422" lon="0.14962">
        <ele>2153.68</ele>
        <time>2017-02-09T15:32:31Z</time>
      </trkpt>
      <trkpt lat="42.87491" lon="0.14876">
        <ele>2145.42</ele>
        <time>2017-02-09T15:32:49Z</time>
      </trkpt>
      <trkpt lat="42.87562" lon="0.14793">
        <ele>2136.53</ele>
        <time>2017-02-09T15:33:04Z</time>
      </trkpt>
      <trkpt lat="42.87621" lon="0.14694">
        <ele>2131.64</ele>
        <time>2017-02-09T15:34:22Z</time>
      </trkpt>
      <trkpt lat="42.87689" lon="0.14616">
        <ele>2134.2</ele>
        <time>2017-02-09T15:43:22Z</time>
      </trkpt>
      <trkpt lat="42.87771" lon="0.14565">
        <ele>2122.21</ele>
        <time>2017-02-09T15:43:39Z</time>
      </trkpt>
      <trkpt lat="42.87806" lon="0.14448">
        <ele>2102.64</ele>
        <time>2017-02-09T15:43:52Z</time>
      </trkpt>
      <trkpt lat="42.87844" lon="0.14335">
        <ele>2088.28</ele>
        <time>2017-02-09T15:44:08Z</time>
      </trkpt>
      <trkpt lat="42.87867" lon="0.14218">
        <ele>2074.38</ele>
        <time>2017-02-09T15:48:58Z</time>
      </trkpt>
      <trkpt lat="42.87884" lon="0.14104">
        <ele>2057.96</ele>
        <time>2017-02-09T15:50:22Z</time>
      </trkpt>
      <trkpt lat="42.87907" lon="0.13982">
        <ele>2044.63</ele>
        <time>2017-02-09T15:50:34Z</time>
      </trkpt>
      <trkpt lat="42.8794" lon="0.13867">
        <ele>2031.18</ele>
        <time>2017-02-09T15:50:47Z</time>
      </trkpt>
      <trkpt lat="42.8797" lon="0.13745">
        <ele>2018.93</ele>
        <time>2017-02-09T15:51:05Z</time>
      </trkpt>
      <trkpt lat="42.88015" lon="0.13631">
        <ele>2008.87</ele>
        <time>2017-02-09T15:53:13Z</time>
      </trkpt>
      <trkpt lat="42.88061" lon="0.13521">
        <ele>1991.73</ele>
        <time>2017-02-09T15:53:31Z</time>
      </trkpt>
      <trkpt lat="42.8811" lon="0.13416">
        <ele>1979</ele>
        <time>2017-02-09T15:53:52Z</time>
      </trkpt>
      <trkpt lat="42.88125" lon="0.13288">
        <ele>1966.2</ele>
        <time>2017-02-09T15:54:04Z</time>
      </trkpt>
      <trkpt lat="42.88127" lon="0.13163">
        <ele>1955.88</ele>
        <time>2017-02-09T15:54:36Z</time>
      </trkpt>
      <trkpt lat="42.88152" lon="0.13036">
        <ele>1950.46</ele>
        <time>2017-02-09T15:55:24Z</time>
      </trkpt>
      <trkpt lat="42.88182" lon="0.12909">
        <ele>1946.34</ele>
        <time>2017-02-09T15:57:04Z</time>
      </trkpt>
      <trkpt lat="42.88193" lon="0.12781">
        <ele>1937.69</ele>
        <time>2017-02-09T15:57:16Z</time>
      </trkpt>
      <trkpt lat="42.88196" lon="0.12653">
        <ele>1930.94</ele>
        <time>2017-02-09T15:58:09Z</time>
      </trkpt>
      <trkpt lat="42.88203" lon="0.12525">
        <ele>1921.94</ele>
        <time>2017-02-09T15:58:19Z</time>
      </trkpt>
      <trkpt lat="42.88217" lon="0.12402">
        <ele>1908.28</ele>
        <time>2017-02-09T15:58:33Z</time>
      </trkpt>
      <trkpt lat="42.88225" lon="0.12275">
        <ele>1906.76</ele>
        <time>2017-02-09T16:00:08Z</time>
      </trkpt>
      <trkpt lat="42.88243" lon="0.12151">
        <ele>1914.43</ele>
        <time>2017-02-09T16:05:05Z</time>
      </trkpt>
      <trkpt lat="42.88255" lon="0.12045">
        <ele>1901.46</ele>
        <time>2017-02-09T16:05:35Z</time>
      </trkpt>
      <trkpt lat="42.88235" lon="0.11925">
        <ele>1884.18</ele>
        <time>2017-02-09T16:05:52Z</time>
      </trkpt>
      <trkpt lat="42.88218" lon="0.1181">
        <ele>1861.47</ele>
        <time>2017-02-09T16:07:44Z</time>
      </trkpt>
      <trkpt lat="42.88237" lon="0.11681">
        <ele>1837.67</ele>
        <time>2017-02-09T16:08:04Z</time>
      </trkpt>
      <trkpt lat="42.88254" lon="0.11559">
        <ele>1816.52</ele>
        <time>2017-02-09T16:08:21Z</time>
      </trkpt>
      <trkpt lat="42.88268" lon="0.11448">
        <ele>1796.88</ele>
        <time>2017-02-09T16:10:05Z</time>
      </trkpt>
      <trkpt lat="42.88283" lon="0.11326">
        <ele>1781.24</ele>
        <time>2017-02-09T16:10:44Z</time>
      </trkpt>
      <trkpt lat="42.88314" lon="0.11208">
        <ele>1769.7</ele>
        <time>2017-02-09T16:11:05Z</time>
      </trkpt>
      <trkpt lat="42.8839" lon="0.11141">
        <ele>1760.84</ele>
        <time>2017-02-09T16:11:18Z</time>
      </trkpt>
      <trkpt lat="42.88454" lon="0.11042">
        <ele>1753.9</ele>
        <time>2017-02-09T16:11:36Z</time>
      </trkpt>
      <trkpt lat="42.88518" lon="0.10966">
        <ele>1746.91</ele>
        <time>2017-02-09T16:13:54Z</time>
      </trkpt>
      <trkpt lat="42.88597" lon="0.10897">
        <ele>1736.16</ele>
        <time>2017-02-09T16:14:15Z</time>
      </trkpt>
      <trkpt lat="42.88687" lon="0.1086">
        <ele>1722.54</ele>
        <time>2017-02-09T16:14:29Z</time>
      </trkpt>
      <trkpt lat="42.88778" lon="0.10832">
        <ele>1700.62</ele>
        <time>2017-02-09T16:14:47Z</time>
      </trkpt>
      <trkpt lat="42.88865" lon="0.10797">
        <ele>1690.97</ele>
        <time>2017-02-09T16:15:01Z</time>
      </trkpt>
      <trkpt lat="42.88947" lon="0.1075">
        <ele>1679.92</ele>
        <time>2017-02-09T16:15:20Z</time>
      </trkpt>
      <trkpt lat="42.89043" lon="0.10746">
        <ele>1671.34</ele>
        <time>2017-02-09T16:16:08Z</time>
      </trkpt>
      <trkpt lat="42.89131" lon="0.10708">
        <ele>1662.72</ele>
        <time>2017-02-09T16:16:21Z</time>
      </trkpt>
      <trkpt lat="42.892" lon="0.10645">
        <ele>1631.99</ele>
        <time>2017-02-09T16:17:16Z</time>
      </trkpt>
      <trkpt lat="42.89293" lon="0.10637">
        <ele>1617.21</ele>
        <time>2017-02-09T16:17:31Z</time>
      </trkpt>
      <trkpt lat="42.89385" lon="0.10641">
        <ele>1601.52</ele>
        <time>2017-02-09T16:17:48Z</time>
      </trkpt>
      <trkpt lat="42.89458" lon="0.10581">
        <ele>1585.18</ele>
        <time>2017-02-09T16:18:03Z</time>
      </trkpt>
      <trkpt lat="42.89535" lon="0.10502">
        <ele>1567.65</ele>
        <time>2017-02-09T16:18:16Z</time>
      </trkpt>
      <trkpt lat="42.89607" lon="0.10473">
        <ele>1551.33</ele>
        <time>2017-02-09T16:18:42Z</time>
      </trkpt>
      <trkpt lat="42.89698" lon="0.10487">
        <ele>1544.21</ele>
        <time>2017-02-09T16:18:57Z</time>
      </trkpt>
      <trkpt lat="42.89796" lon="0.10487">
        <ele>1532.01</ele>
        <time>2017-02-09T16:19:09Z</time>
      </trkpt>
      <trkpt lat="42.89882" lon="0.1045">
        <ele>1519.89</ele>
        <time>2017-02-09T16:19:19Z</time>
      </trkpt>
      <trkpt lat="42.89981" lon="0.10426">
        <ele>1508.31</ele>
        <time>2017-02-09T16:19:28Z</time>
      </trkpt>
      <trkpt lat="42.90073" lon="0.104">
        <ele>1501.15</ele>
        <time>2017-02-09T16:19:39Z</time>
      </trkpt>
      <trkpt lat="42.90168" lon="0.10372">
        <ele>1490.79</ele>
        <time>2017-02-09T16:19:49Z</time>
      </trkpt>
      <trkpt lat="42.90261" lon="0.10349">
        <ele>1481.71</ele>
        <time>2017-02-09T16:20:00Z</time>
      </trkpt>
      <trkpt lat="42.90349" lon="0.10323">
        <ele>1475.11</ele>
        <time>2017-02-09T16:20:14Z</time>
      </trkpt>
      <trkpt lat="42.90358" lon="0.10309">
        <ele>1472.37</ele>
        <time>2017-02-09T16:21:48Z</time>
      </trkpt>
    </trkseg>
  </trk>
</gpx>